Resolute — WTW2234 — position and weather

sailwx.info

Track history (hours):
 
Tides and Currents Weather Stations Pressure Air Temp Water Temp Dewpoint Dewpoint Depression Visibility Wind Speed Wind Dir Waves Ship Positions

Resolute

Owner: Providence Steamboat Co., PROVIDENCE, RI. More information available from US FCC via Universal Licensing System and Coast Guard Vessel Documentation Center.

Last reported at 2014-Oct-01 20:33 UTC. Time now 2014-Oct-02 00:37 UTC.
Position N 40°48' W 073°48'.

Length 30 m; draft 4 m.

Type: Tug. MMSI: 367091630.

Date/timePositionNaut miles runAvg speedWind from/ knotsBaromVisibWave heightAir tempDewpointWater temp
2014-Oct-01 20:33N 40°48' W 073°48'6 6.3
2014-Oct-01 19:34N 40°47' W 073°56'7 6.8
2014-Oct-01 18:34N 40°41' W 074°01'2 2.1
2014-Oct-01 17:33N 40°40' W 074°03'0 0.0
2014-Oct-01 16:34N 40°40' W 074°03'0 0.1
2014-Oct-01 15:34N 40°39' W 074°03'4 4.1
2014-Oct-01 14:33N 40°39' W 074°08'7 5.4
2014-Oct-01 13:16N 40°33' W 074°14'3 1.5
2014-Oct-01 11:04N 40°36' W 074°12'3 4.2
2014-Oct-01 10:24N 40°38' W 074°10'0 0.0
2014-Oct-01 09:27N 40°38' W 074°10'0 0.0
2014-Oct-01 08:33N 40°38' W 074°10'0 0.0
2014-Oct-01 07:33N 40°38' W 074°10'0 0.0
2014-Oct-01 06:30N 40°38' W 074°10'0 0.0
2014-Oct-01 05:33N 40°38' W 074°10'0 0.0
2014-Oct-01 04:34N 40°38' W 074°10'0 0.0
2014-Oct-01 03:33N 40°38' W 074°10'0 0.0
2014-Oct-01 02:34N 40°38' W 074°10'7 6.3
2014-Oct-01 01:25N 40°32' W 074°15'4 4.8
2014-Oct-01 00:31N 40°36' W 074°12'6 6.7
2014-Sep-30 23:34N 40°39' W 074°05'2 2.3
2014-Sep-30 22:34N 40°40' W 074°02'3 2.5
2014-Sep-30 21:34N 40°42' W 074°00'1 1.1
2014-Sep-30 20:34N 40°41' W 074°01'1 1.4
2014-Sep-30 19:34N 40°40' W 074°02'1 1.4
2014-Sep-30 18:33N 40°41' W 074°01'6 6.0
2014-Sep-30 17:31N 40°47' W 073°56'5 5.2
2014-Sep-30 16:28N 40°48' W 073°50'8 7.6
2014-Sep-30 15:26N 40°54' W 073°42'8 9.1
2014-Sep-30 14:31N 40°57' W 073°32'9 9.1
2014-Sep-30 13:33N 41°01' W 073°22'9 9.0
2014-Sep-30 12:33N 41°04' W 073°11'9 8.6
2014-Sep-30 11:33N 41°09' W 073°01'8 8.0
2014-Sep-30 10:33N 41°15' W 072°55'2 0.8
2014-Sep-30 07:29N 41°18' W 072°54'0 0.0
2014-Sep-30 06:19N 41°18' W 072°54'0 0.0
2014-Sep-30 04:18N 41°18' W 072°54'0 0.0
2014-Sep-30 03:17N 41°18' W 072°54'0 0.0
2014-Sep-30 02:33N 41°18' W 072°54'4 4.0
2014-Sep-30 01:34N 41°14' W 072°55'7 7.3
2014-Sep-30 00:33N 41°08' W 073°01'8 8.4
2014-Sep-29 23:33N 41°04' W 073°11'8 8.5
2014-Sep-29 22:33N 41°01' W 073°21'8 8.5
2014-Sep-29 21:33N 40°58' W 073°32'8 8.0
2014-Sep-29 20:33N 40°54' W 073°41'7 6.9
2014-Sep-29 19:33N 40°49' W 073°47'6 5.8
2014-Sep-29 18:34N 40°48' W 073°54'5 4.8
2014-Sep-29 17:34N 40°44' W 073°58'5 4.8
2014-Sep-29 16:34N 40°40' W 074°02'1 1.0
2014-Sep-29 15:34N 40°39' W 074°03'0 0.1
2014-Sep-29 14:34N 40°39' W 074°03'3 2.5
2014-Sep-29 13:21N 40°39' W 074°07'0 0.0
2014-Sep-29 12:32N 40°39' W 074°07'0 0.1
2014-Sep-29 11:34N 40°39' W 074°07'10 9.5
2014-Sep-29 10:33N 40°45' W 073°57'1010.3
2014-Sep-29 09:33N 40°51' W 073°46'1110.7
2014-Sep-29 08:33N 40°57' W 073°34'1111.0
2014-Sep-29 07:34N 41°01' W 073°21'1111.1
2014-Sep-29 06:34N 41°02' W 073°06'1111.4
2014-Sep-29 05:34N 41°05' W 072°51'1211.6
2014-Sep-29 04:33N 41°07' W 072°36'1212.5
2014-Sep-29 03:34N 41°11' W 072°21'1212.1
2014-Sep-29 02:33N 41°14' W 072°05'1111.0
2014-Sep-29 01:34N 41°15' W 071°51'1110.8
2014-Sep-29 00:34N 41°18' W 071°37'9 9.4
2014-Sep-28 23:34N 41°22' W 071°26'1010.5
2014-Sep-28 22:34N 41°32' W 071°20'1010.3
2014-Sep-28 21:33N 41°42' W 071°19'8 7.7
2014-Sep-28 20:33N 41°49' W 071°24'3 3.5
2014-Sep-28 19:33N 41°46' W 071°23'7 6.7
2014-Sep-28 18:33N 41°40' W 071°19'6 6.4
2014-Sep-28 17:33N 41°33' W 071°19'7 6.8
2014-Sep-28 16:33N 41°27' W 071°22'7 7.0
2014-Sep-28 15:33N 41°20' W 071°25'8 7.5
2014-Sep-28 14:33N 41°18' W 071°34'8 7.6
2014-Sep-28 13:34N 41°16' W 071°44'8 8.0
2014-Sep-28 12:34N 41°15' W 071°55'9 8.7
2014-Sep-28 11:33N 41°14' W 072°06'10 9.8
2014-Sep-28 10:34N 41°12' W 072°19'10 9.9
2014-Sep-28 09:34N 41°08' W 072°31'9 8.9
2014-Sep-28 08:33N 41°06' W 072°43'8 8.2
2014-Sep-28 07:33N 41°04' W 072°53'8 7.8
2014-Sep-28 06:34N 41°02' W 073°03'8 7.6
2014-Sep-28 05:33N 41°01' W 073°13'7 7.3
2014-Sep-28 04:33N 41°00' W 073°23'7 6.7
2014-Sep-28 03:33N 40°58' W 073°31'7 7.1
2014-Sep-28 02:33N 40°54' W 073°40'9 7.3
2014-Sep-28 01:23N 40°48' W 073°47'7 8.1
2014-Sep-28 00:34N 40°47' W 073°56'8 7.7
2014-Sep-27 23:33N 40°41' W 074°02'5 5.4
2014-Sep-27 22:34N 40°39' W 074°09'1 1.0
2014-Sep-27 21:33N 40°38' W 074°10'0 0.0
2014-Sep-27 20:30N 40°38' W 074°10'0 0.0
2014-Sep-27 19:33N 40°38' W 074°10'0 0.0
2014-Sep-27 18:33N 40°38' W 074°10'0 0.0
2014-Sep-27 17:18N 40°38' W 074°10'0 0.0
2014-Sep-27 16:23N 40°38' W 074°10'0 0.0
2014-Sep-27 15:31N 40°38' W 074°10'0 0.0
2014-Sep-27 14:33N 40°38' W 074°10'0 0.0
2014-Sep-27 13:33N 40°38' W 074°10'0 0.0
2014-Sep-27 12:33N 40°38' W 074°10'2 1.9
2014-Sep-27 11:32N 40°39' W 074°07'5 2.7
2014-Sep-27 09:33N 40°40' W 074°01'2 2.0
2014-Sep-27 08:34N 40°39' W 074°03'5 5.3
2014-Sep-27 07:32N 40°38' W 074°10'0 0.0
2014-Sep-27 06:34N 40°38' W 074°10'0 0.0
2014-Sep-27 05:33N 40°38' W 074°10'0 0.0
2014-Sep-27 04:33N 40°38' W 074°10'0 0.0
2014-Sep-27 03:34N 40°38' W 074°10'0 0.0
2014-Sep-27 02:33N 40°38' W 074°10'0 0.0
2014-Sep-27 01:33N 40°38' W 074°10'0 0.0
2014-Sep-27 00:33N 40°38' W 074°10'0 0.0
2014-Sep-26 23:33N 40°38' W 074°10'0 0.0
2014-Sep-26 22:33N 40°38' W 074°10'0 0.0
2014-Sep-26 21:33N 40°38' W 074°10'0 0.0
2014-Sep-26 20:32N 40°38' W 074°10'0 0.0
2014-Sep-26 19:33N 40°38' W 074°10'0 0.0
2014-Sep-26 18:33N 40°38' W 074°10'0 0.0
2014-Sep-26 17:33N 40°38' W 074°10'0 0.0
2014-Sep-26 16:33N 40°38' W 074°10'0 0.0
2014-Sep-26 15:33N 40°38' W 074°10'8 6.6
2014-Sep-26 14:17N 40°31' W 074°15'4 4.8
2014-Sep-26 13:25N 40°35' W 074°13'1 0.9
2014-Sep-26 12:21N 40°36' W 074°12'0 0.0
2014-Sep-26 11:27N 40°36' W 074°12'0 0.0
2014-Sep-26 10:27N 40°36' W 074°12'0 0.0
2014-Sep-26 09:09N 40°36' W 074°12'0 0.0
2014-Sep-26 08:29N 40°36' W 074°12'3 2.0
2014-Sep-26 07:08N 40°33' W 074°14'1 2.0
2014-Sep-26 06:33N 40°33' W 074°15'0 0.0
2014-Sep-26 02:23N 40°33' W 074°15'1 0.1
2014-Sep-25 14:16N 40°31' W 074°15'6 7.9
2014-Sep-25 13:30N 40°37' W 074°12'2 2.4
2014-Sep-25 12:33N 40°38' W 074°10'0 0.0
2014-Sep-25 11:33N 40°38' W 074°10'2 1.5
2014-Sep-25 10:33N 40°40' W 074°09'1 1.2
2014-Sep-25 09:33N 40°39' W 074°08'2 1.5
2014-Sep-25 08:33N 40°38' W 074°10'7 6.8
2014-Sep-25 07:31N 40°33' W 074°15'5 4.3
2014-Sep-25 06:20N 40°37' W 074°12'1 0.9
2014-Sep-25 05:31N 40°38' W 074°12'2 1.8
2014-Sep-25 04:32N 40°38' W 074°10'0 0.0
2014-Sep-25 03:27N 40°38' W 074°10'5 5.1
2014-Sep-25 02:33N 40°40' W 074°04'0 0.0
2014-Sep-25 01:33N 40°40' W 074°04'0 0.0
2014-Sep-25 00:33N 40°40' W 074°04'0 0.0
2014-Sep-24 23:33N 40°40' W 074°04'0 0.0
2014-Sep-24 22:33N 40°40' W 074°04'0 0.0
2014-Sep-24 21:33N 40°40' W 074°04'0 0.0
2014-Sep-24 20:33N 40°40' W 074°04'4 4.4
2014-Sep-24 19:33N 40°42' W 073°60'1 0.8
2014-Sep-24 18:33N 40°42' W 073°58'0 0.0
2014-Sep-24 17:33N 40°42' W 073°58'0 0.0
2014-Sep-24 16:33N 40°42' W 073°58'0 0.0
2014-Sep-24 15:33N 40°42' W 073°58'0 0.1
2014-Sep-24 14:33N 40°42' W 073°58'3 3.1
2014-Sep-24 13:33N 40°41' W 074°02'5 4.6
2014-Sep-24 12:33N 40°39' W 074°07'2 2.1
2014-Sep-24 11:33N 40°38' W 074°10'2 1.9
2014-Sep-24 10:33N 40°39' W 074°07'3 2.5
2014-Sep-24 09:33N 40°40' W 074°05'2 1.6
2014-Sep-24 08:33N 40°39' W 074°04'1 1.4
2014-Sep-24 07:33N 40°40' W 074°05'0 0.0
2014-Sep-24 06:33N 40°40' W 074°05'0 0.0
2014-Sep-24 05:33N 40°40' W 074°05'2 2.4
2014-Sep-24 04:33N 40°39' W 074°02'6 5.8
2014-Sep-24 03:33N 40°44' W 073°58'38 8.5
2014-Sep-23 23:04N 40°60' W 073°13'7 7.4
2014-Sep-23 22:09N 40°57' W 073°04'1 0.4
2014-Sep-23 20:29N 40°58' W 073°05'0 0.0
2014-Sep-23 18:27N 40°58' W 073°05'0 0.0
2014-Sep-23 16:28N 40°58' W 073°05'0 0.0
2014-Sep-23 15:34N 40°58' W 073°05'0 0.0
2014-Sep-23 14:23N 40°58' W 073°05'1 0.2
2014-Sep-23 10:32N 40°57' W 073°04'4 4.3
2014-Sep-23 09:33N 40°60' W 073°09'6 5.7
2014-Sep-23 08:33N 41°00' W 073°16'5 5.5
2014-Sep-23 07:33N 41°01' W 073°24'5 5.0
2014-Sep-23 06:33N 40°58' W 073°30'5 5.0
2014-Sep-23 05:33N 40°56' W 073°36'6 4.9
2014-Sep-23 04:23N 40°53' W 073°42'4 4.8
2014-Sep-23 03:26N 40°50' W 073°46'3 3.8
2014-Sep-23 02:33N 40°48' W 073°50'6 6.1
2014-Sep-23 01:33N 40°46' W 073°57'7 7.4
2014-Sep-23 00:33N 40°40' W 074°03'3 2.7
2014-Sep-22 23:30N 40°39' W 074°06'1 0.6
2014-Sep-22 22:33N 40°39' W 074°06'0 0.0
2014-Sep-22 21:33N 40°39' W 074°06'0 0.0
2014-Sep-22 20:33N 40°39' W 074°06'0 0.0
2014-Sep-22 19:33N 40°39' W 074°06'0 0.0
2014-Sep-22 18:32N 40°39' W 074°06'0 0.0
2014-Sep-22 17:17N 40°39' W 074°06'0 0.0
2014-Sep-22 16:30N 40°39' W 074°06'2 2.5
2014-Sep-22 15:33N 40°39' W 074°09'2 1.6
2014-Sep-22 14:33N 40°41' W 074°09'1 1.2
2014-Sep-22 13:33N 40°40' W 074°09'0 0.4
2014-Sep-22 12:30N 40°40' W 074°09'0 0.0
2014-Sep-22 11:33N 40°40' W 074°09'1 0.8
2014-Sep-22 10:33N 40°40' W 074°08'3 2.6
2014-Sep-22 09:33N 40°39' W 074°06'0 0.0
2014-Sep-22 08:33N 40°39' W 074°06'0 0.0
2014-Sep-22 07:33N 40°39' W 074°06'0 0.0
2014-Sep-22 06:33N 40°39' W 074°06'1 0.6
2014-Sep-22 05:33N 40°39' W 074°06'3 2.8
2014-Sep-22 04:33N 40°39' W 074°10'4 3.3
2014-Sep-22 03:20N 40°35' W 074°13'3 4.1
2014-Sep-22 02:33N 40°38' W 074°12'1 1.4
2014-Sep-22 01:33N 40°38' W 074°10'0 0.0
2014-Sep-22 00:33N 40°38' W 074°10'0 0.0
2014-Sep-21 23:33N 40°38' W 074°10'1 1.3
2014-Sep-21 22:31N 40°39' W 074°08'1 1.1
2014-Sep-21 21:17N 40°40' W 074°09'0 0.1
2014-Sep-21 20:33N 40°40' W 074°09'  
Track history (hours):
 
Tides and Currents Weather Stations Pressure Air Temp Water Temp Dewpoint Dewpoint Depression Visibility Wind Speed Wind Dir Waves Ship Positions

Resolute

Owner: Providence Steamboat Co., PROVIDENCE, RI. More information available from US FCC via Universal Licensing System and Coast Guard Vessel Documentation Center.

Last reported at 2014-Oct-01 20:33 UTC. Time now 2014-Oct-02 00:37 UTC.
Position N 40°48' W 073°48'.

Length 30 m; draft 4 m.

Type: Tug. MMSI: 367091630.

Date/timePositionNaut miles runAvg speedWind from/ knotsBaromVisibWave heightAir tempDewpointWater temp
2014-Oct-01 20:33N 40°48' W 073°48'6 6.3
2014-Oct-01 19:34N 40°47' W 073°56'7 6.8
2014-Oct-01 18:34N 40°41' W 074°01'2 2.1
2014-Oct-01 17:33N 40°40' W 074°03'0 0.0
2014-Oct-01 16:34N 40°40' W 074°03'0 0.1
2014-Oct-01 15:34N 40°39' W 074°03'4 4.1
2014-Oct-01 14:33N 40°39' W 074°08'7 5.4
2014-Oct-01 13:16N 40°33' W 074°14'3 1.5
2014-Oct-01 11:04N 40°36' W 074°12'3 4.2
2014-Oct-01 10:24N 40°38' W 074°10'0 0.0
2014-Oct-01 09:27N 40°38' W 074°10'0 0.0
2014-Oct-01 08:33N 40°38' W 074°10'0 0.0
2014-Oct-01 07:33N 40°38' W 074°10'0 0.0
2014-Oct-01 06:30N 40°38' W 074°10'0 0.0
2014-Oct-01 05:33N 40°38' W 074°10'0 0.0
2014-Oct-01 04:34N 40°38' W 074°10'0 0.0
2014-Oct-01 03:33N 40°38' W 074°10'0 0.0
2014-Oct-01 02:34N 40°38' W 074°10'7 6.3
2014-Oct-01 01:25N 40°32' W 074°15'4 4.8
2014-Oct-01 00:31N 40°36' W 074°12'6 6.7
2014-Sep-30 23:34N 40°39' W 074°05'2 2.3
2014-Sep-30 22:34N 40°40' W 074°02'3 2.5
2014-Sep-30 21:34N 40°42' W 074°00'1 1.1
2014-Sep-30 20:34N 40°41' W 074°01'1 1.4
2014-Sep-30 19:34N 40°40' W 074°02'1 1.4
2014-Sep-30 18:33N 40°41' W 074°01'6 6.0
2014-Sep-30 17:31N 40°47' W 073°56'5 5.2
2014-Sep-30 16:28N 40°48' W 073°50'8 7.6
2014-Sep-30 15:26N 40°54' W 073°42'8 9.1
2014-Sep-30 14:31N 40°57' W 073°32'9 9.1
2014-Sep-30 13:33N 41°01' W 073°22'9 9.0
2014-Sep-30 12:33N 41°04' W 073°11'9 8.6
2014-Sep-30 11:33N 41°09' W 073°01'8 8.0
2014-Sep-30 10:33N 41°15' W 072°55'2 0.8
2014-Sep-30 07:29N 41°18' W 072°54'0 0.0
2014-Sep-30 06:19N 41°18' W 072°54'0 0.0
2014-Sep-30 04:18N 41°18' W 072°54'0 0.0
2014-Sep-30 03:17N 41°18' W 072°54'0 0.0
2014-Sep-30 02:33N 41°18' W 072°54'4 4.0
2014-Sep-30 01:34N 41°14' W 072°55'7 7.3
2014-Sep-30 00:33N 41°08' W 073°01'8 8.4
2014-Sep-29 23:33N 41°04' W 073°11'8 8.5
2014-Sep-29 22:33N 41°01' W 073°21'8 8.5
2014-Sep-29 21:33N 40°58' W 073°32'8 8.0
2014-Sep-29 20:33N 40°54' W 073°41'7 6.9
2014-Sep-29 19:33N 40°49' W 073°47'6 5.8
2014-Sep-29 18:34N 40°48' W 073°54'5 4.8
2014-Sep-29 17:34N 40°44' W 073°58'5 4.8
2014-Sep-29 16:34N 40°40' W 074°02'1 1.0
2014-Sep-29 15:34N 40°39' W 074°03'0 0.1
2014-Sep-29 14:34N 40°39' W 074°03'3 2.5
2014-Sep-29 13:21N 40°39' W 074°07'0 0.0
2014-Sep-29 12:32N 40°39' W 074°07'0 0.1
2014-Sep-29 11:34N 40°39' W 074°07'10 9.5
2014-Sep-29 10:33N 40°45' W 073°57'1010.3
2014-Sep-29 09:33N 40°51' W 073°46'1110.7
2014-Sep-29 08:33N 40°57' W 073°34'1111.0
2014-Sep-29 07:34N 41°01' W 073°21'1111.1
2014-Sep-29 06:34N 41°02' W 073°06'1111.4
2014-Sep-29 05:34N 41°05' W 072°51'1211.6
2014-Sep-29 04:33N 41°07' W 072°36'1212.5
2014-Sep-29 03:34N 41°11' W 072°21'1212.1
2014-Sep-29 02:33N 41°14' W 072°05'1111.0
2014-Sep-29 01:34N 41°15' W 071°51'1110.8
2014-Sep-29 00:34N 41°18' W 071°37'9 9.4
2014-Sep-28 23:34N 41°22' W 071°26'1010.5
2014-Sep-28 22:34N 41°32' W 071°20'1010.3
2014-Sep-28 21:33N 41°42' W 071°19'8 7.7
2014-Sep-28 20:33N 41°49' W 071°24'3 3.5
2014-Sep-28 19:33N 41°46' W 071°23'7 6.7
2014-Sep-28 18:33N 41°40' W 071°19'6 6.4
2014-Sep-28 17:33N 41°33' W 071°19'7 6.8
2014-Sep-28 16:33N 41°27' W 071°22'7 7.0
2014-Sep-28 15:33N 41°20' W 071°25'8 7.5
2014-Sep-28 14:33N 41°18' W 071°34'8 7.6
2014-Sep-28 13:34N 41°16' W 071°44'8 8.0
2014-Sep-28 12:34N 41°15' W 071°55'9 8.7
2014-Sep-28 11:33N 41°14' W 072°06'10 9.8
2014-Sep-28 10:34N 41°12' W 072°19'10 9.9
2014-Sep-28 09:34N 41°08' W 072°31'9 8.9
2014-Sep-28 08:33N 41°06' W 072°43'8 8.2
2014-Sep-28 07:33N 41°04' W 072°53'8 7.8
2014-Sep-28 06:34N 41°02' W 073°03'8 7.6
2014-Sep-28 05:33N 41°01' W 073°13'7 7.3
2014-Sep-28 04:33N 41°00' W 073°23'7 6.7
2014-Sep-28 03:33N 40°58' W 073°31'7 7.1
2014-Sep-28 02:33N 40°54' W 073°40'9 7.3
2014-Sep-28 01:23N 40°48' W 073°47'7 8.1
2014-Sep-28 00:34N 40°47' W 073°56'8 7.7
2014-Sep-27 23:33N 40°41' W 074°02'5 5.4
2014-Sep-27 22:34N 40°39' W 074°09'1 1.0
2014-Sep-27 21:33N 40°38' W 074°10'0 0.0
2014-Sep-27 20:30N 40°38' W 074°10'0 0.0
2014-Sep-27 19:33N 40°38' W 074°10'0 0.0
2014-Sep-27 18:33N 40°38' W 074°10'0 0.0
2014-Sep-27 17:18N 40°38' W 074°10'0 0.0
2014-Sep-27 16:23N 40°38' W 074°10'0 0.0
2014-Sep-27 15:31N 40°38' W 074°10'0 0.0
2014-Sep-27 14:33N 40°38' W 074°10'0 0.0
2014-Sep-27 13:33N 40°38' W 074°10'0 0.0
2014-Sep-27 12:33N 40°38' W 074°10'2 1.9
2014-Sep-27 11:32N 40°39' W 074°07'5 2.7
2014-Sep-27 09:33N 40°40' W 074°01'2 2.0
2014-Sep-27 08:34N 40°39' W 074°03'5 5.3
2014-Sep-27 07:32N 40°38' W 074°10'0 0.0
2014-Sep-27 06:34N 40°38' W 074°10'0 0.0
2014-Sep-27 05:33N 40°38' W 074°10'0 0.0
2014-Sep-27 04:33N 40°38' W 074°10'0 0.0
2014-Sep-27 03:34N 40°38' W 074°10'0 0.0
2014-Sep-27 02:33N 40°38' W 074°10'0 0.0
2014-Sep-27 01:33N 40°38' W 074°10'0 0.0
2014-Sep-27 00:33N 40°38' W 074°10'0 0.0
2014-Sep-26 23:33N 40°38' W 074°10'0 0.0
2014-Sep-26 22:33N 40°38' W 074°10'0 0.0
2014-Sep-26 21:33N 40°38' W 074°10'0 0.0
2014-Sep-26 20:32N 40°38' W 074°10'0 0.0
2014-Sep-26 19:33N 40°38' W 074°10'0 0.0
2014-Sep-26 18:33N 40°38' W 074°10'0 0.0
2014-Sep-26 17:33N 40°38' W 074°10'0 0.0
2014-Sep-26 16:33N 40°38' W 074°10'0 0.0
2014-Sep-26 15:33N 40°38' W 074°10'8 6.6
2014-Sep-26 14:17N 40°31' W 074°15'4 4.8
2014-Sep-26 13:25N 40°35' W 074°13'1 0.9
2014-Sep-26 12:21N 40°36' W 074°12'0 0.0
2014-Sep-26 11:27N 40°36' W 074°12'0 0.0
2014-Sep-26 10:27N 40°36' W 074°12'0 0.0
2014-Sep-26 09:09N 40°36' W 074°12'0 0.0
2014-Sep-26 08:29N 40°36' W 074°12'3 2.0
2014-Sep-26 07:08N 40°33' W 074°14'1 2.0
2014-Sep-26 06:33N 40°33' W 074°15'0 0.0
2014-Sep-26 02:23N 40°33' W 074°15'1 0.1
2014-Sep-25 14:16N 40°31' W 074°15'6 7.9
2014-Sep-25 13:30N 40°37' W 074°12'2 2.4
2014-Sep-25 12:33N 40°38' W 074°10'0 0.0
2014-Sep-25 11:33N 40°38' W 074°10'2 1.5
2014-Sep-25 10:33N 40°40' W 074°09'1 1.2
2014-Sep-25 09:33N 40°39' W 074°08'2 1.5
2014-Sep-25 08:33N 40°38' W 074°10'7 6.8
2014-Sep-25 07:31N 40°33' W 074°15'5 4.3
2014-Sep-25 06:20N 40°37' W 074°12'1 0.9
2014-Sep-25 05:31N 40°38' W 074°12'2 1.8
2014-Sep-25 04:32N 40°38' W 074°10'0 0.0
2014-Sep-25 03:27N 40°38' W 074°10'5 5.1
2014-Sep-25 02:33N 40°40' W 074°04'0 0.0
2014-Sep-25 01:33N 40°40' W 074°04'0 0.0
2014-Sep-25 00:33N 40°40' W 074°04'0 0.0
2014-Sep-24 23:33N 40°40' W 074°04'0 0.0
2014-Sep-24 22:33N 40°40' W 074°04'0 0.0
2014-Sep-24 21:33N 40°40' W 074°04'0 0.0
2014-Sep-24 20:33N 40°40' W 074°04'4 4.4
2014-Sep-24 19:33N 40°42' W 073°60'1 0.8
2014-Sep-24 18:33N 40°42' W 073°58'0 0.0
2014-Sep-24 17:33N 40°42' W 073°58'0 0.0
2014-Sep-24 16:33N 40°42' W 073°58'0 0.0
2014-Sep-24 15:33N 40°42' W 073°58'0 0.1
2014-Sep-24 14:33N 40°42' W 073°58'3 3.1
2014-Sep-24 13:33N 40°41' W 074°02'5 4.6
2014-Sep-24 12:33N 40°39' W 074°07'2 2.1
2014-Sep-24 11:33N 40°38' W 074°10'2 1.9
2014-Sep-24 10:33N 40°39' W 074°07'3 2.5
2014-Sep-24 09:33N 40°40' W 074°05'2 1.6
2014-Sep-24 08:33N 40°39' W 074°04'1 1.4
2014-Sep-24 07:33N 40°40' W 074°05'0 0.0
2014-Sep-24 06:33N 40°40' W 074°05'0 0.0
2014-Sep-24 05:33N 40°40' W 074°05'2 2.4
2014-Sep-24 04:33N 40°39' W 074°02'6 5.8
2014-Sep-24 03:33N 40°44' W 073°58'38 8.5
2014-Sep-23 23:04N 40°60' W 073°13'7 7.4
2014-Sep-23 22:09N 40°57' W 073°04'1 0.4
2014-Sep-23 20:29N 40°58' W 073°05'0 0.0
2014-Sep-23 18:27N 40°58' W 073°05'0 0.0
2014-Sep-23 16:28N 40°58' W 073°05'0 0.0
2014-Sep-23 15:34N 40°58' W 073°05'0 0.0
2014-Sep-23 14:23N 40°58' W 073°05'1 0.2
2014-Sep-23 10:32N 40°57' W 073°04'4 4.3
2014-Sep-23 09:33N 40°60' W 073°09'6 5.7
2014-Sep-23 08:33N 41°00' W 073°16'5 5.5
2014-Sep-23 07:33N 41°01' W 073°24'5 5.0
2014-Sep-23 06:33N 40°58' W 073°30'5 5.0
2014-Sep-23 05:33N 40°56' W 073°36'6 4.9
2014-Sep-23 04:23N 40°53' W 073°42'4 4.8
2014-Sep-23 03:26N 40°50' W 073°46'3 3.8
2014-Sep-23 02:33N 40°48' W 073°50'6 6.1
2014-Sep-23 01:33N 40°46' W 073°57'7 7.4
2014-Sep-23 00:33N 40°40' W 074°03'3 2.7
2014-Sep-22 23:30N 40°39' W 074°06'1 0.6
2014-Sep-22 22:33N 40°39' W 074°06'0 0.0
2014-Sep-22 21:33N 40°39' W 074°06'0 0.0
2014-Sep-22 20:33N 40°39' W 074°06'0 0.0
2014-Sep-22 19:33N 40°39' W 074°06'0 0.0
2014-Sep-22 18:32N 40°39' W 074°06'0 0.0
2014-Sep-22 17:17N 40°39' W 074°06'0 0.0
2014-Sep-22 16:30N 40°39' W 074°06'2 2.5
2014-Sep-22 15:33N 40°39' W 074°09'2 1.6
2014-Sep-22 14:33N 40°41' W 074°09'1 1.2
2014-Sep-22 13:33N 40°40' W 074°09'0 0.4
2014-Sep-22 12:30N 40°40' W 074°09'0 0.0
2014-Sep-22 11:33N 40°40' W 074°09'1 0.8
2014-Sep-22 10:33N 40°40' W 074°08'3 2.6
2014-Sep-22 09:33N 40°39' W 074°06'0 0.0
2014-Sep-22 08:33N 40°39' W 074°06'0 0.0
2014-Sep-22 07:33N 40°39' W 074°06'0 0.0
2014-Sep-22 06:33N 40°39' W 074°06'1 0.6
2014-Sep-22 05:33N 40°39' W 074°06'3 2.8
2014-Sep-22 04:33N 40°39' W 074°10'4 3.3
2014-Sep-22 03:20N 40°35' W 074°13'3 4.1
2014-Sep-22 02:33N 40°38' W 074°12'1 1.4
2014-Sep-22 01:33N 40°38' W 074°10'0 0.0
2014-Sep-22 00:33N 40°38' W 074°10'0 0.0
2014-Sep-21 23:33N 40°38' W 074°10'1 1.3
2014-Sep-21 22:31N 40°39' W 074°08'1 1.1
2014-Sep-21 21:17N 40°40' W 074°09'0 0.1
2014-Sep-21 20:33N 40°40' W 074°09'  

Dump ship's entire track history